createdAt,value
2023-04-16T00:01:02.979Z,3.28
2023-04-16T00:03:29.756Z,3.24
2023-04-16T00:05:56.890Z,3.18
2023-04-16T00:08:26.601Z,3.13
2023-04-16T00:10:54.242Z,3.08
2023-04-16T00:13:21.329Z,3.07
2023-04-16T00:15:48.077Z,3.05
2023-04-16T00:18:14.793Z,3.05
2023-04-16T00:20:41.403Z,3.01
2023-04-16T00:23:08.031Z,2.91
2023-04-16T00:25:34.631Z,2.85
2023-04-16T00:28:01.297Z,2.84
2023-04-16T00:30:27.983Z,2.80
2023-04-16T00:32:54.683Z,2.74
2023-04-16T00:35:21.503Z,2.74
2023-04-16T00:37:48.193Z,2.70
2023-04-16T00:40:14.844Z,2.64
2023-04-16T00:42:41.475Z,2.59
2023-04-16T00:45:08.986Z,2.56
2023-04-16T00:47:35.940Z,2.53
2023-04-16T00:50:04.602Z,2.53
2023-04-16T00:52:32.901Z,2.52
2023-04-16T00:54:59.708Z,2.53
2023-04-16T00:57:27.093Z,2.55
2023-04-16T00:59:54.634Z,2.54
2023-04-16T01:02:21.411Z,2.52
2023-04-16T01:04:48.323Z,2.46
2023-04-16T01:07:14.992Z,2.42
2023-04-16T01:09:41.725Z,2.34
2023-04-16T01:12:08.517Z,2.32
2023-04-16T01:14:36.555Z,2.29
2023-04-16T01:17:04.251Z,2.25
2023-04-16T01:19:36.403Z,2.21
2023-04-16T01:22:04.021Z,2.22
2023-04-16T01:24:31.228Z,2.23
2023-04-16T01:27:01.019Z,2.22
2023-04-16T01:29:27.791Z,2.16
2023-04-16T01:31:54.556Z,2.11
2023-04-16T01:34:21.301Z,2.08
2023-04-16T01:36:47.991Z,2.05
2023-04-16T01:39:16.498Z,2.06
2023-04-16T01:41:43.768Z,2.06
2023-04-16T01:44:10.840Z,2.03
2023-04-16T01:46:38.219Z,1.99
2023-04-16T01:49:07.325Z,1.97
2023-04-16T01:51:34.254Z,1.94
2023-04-16T01:54:01.028Z,1.89
2023-04-16T01:56:27.834Z,1.82
2023-04-16T01:58:54.542Z,1.82
2023-04-16T02:01:21.294Z,1.84
2023-04-16T02:03:48.765Z,1.85
2023-04-16T02:06:15.722Z,1.86
2023-04-16T02:08:42.423Z,1.85
2023-04-16T02:11:09.227Z,1.80
2023-04-16T02:13:36.093Z,1.79
2023-04-16T02:16:02.852Z,1.74
2023-04-16T02:18:29.535Z,1.69
2023-04-16T02:20:58.931Z,1.68
2023-04-16T02:23:25.698Z,1.69
2023-04-16T02:25:52.393Z,1.72
2023-04-16T02:28:19.076Z,1.68
2023-04-16T02:30:45.756Z,1.61
2023-04-16T02:33:12.571Z,1.60
2023-04-16T02:35:40.136Z,1.60
2023-04-16T02:38:07.638Z,1.61
2023-04-16T02:40:34.392Z,1.59
2023-04-16T02:43:01.194Z,1.55
2023-04-16T02:45:27.949Z,1.55
2023-04-16T02:47:54.660Z,1.59
2023-04-16T02:50:21.370Z,1.60
2023-04-16T02:52:48.640Z,1.61
2023-04-16T02:55:15.439Z,1.58
2023-04-16T02:57:42.719Z,1.57
2023-04-16T03:00:10.022Z,1.54
2023-04-16T03:02:36.862Z,1.51
2023-04-16T03:05:04.166Z,1.48
2023-04-16T03:07:30.815Z,1.43
2023-04-16T03:09:57.511Z,1.43
2023-04-16T03:12:24.241Z,1.40
2023-04-16T03:14:52.579Z,1.36
2023-04-16T03:17:19.382Z,1.38
2023-04-16T03:19:46.221Z,1.37
2023-04-16T03:22:13.417Z,1.37
2023-04-16T03:24:40.072Z,1.32
2023-04-16T03:27:06.688Z,1.27
2023-04-16T03:29:33.466Z,1.23
2023-04-16T03:32:00.177Z,1.19
2023-04-16T03:34:26.948Z,1.17
2023-04-16T03:36:53.543Z,1.19
2023-04-16T03:39:20.638Z,1.19
2023-04-16T03:41:47.325Z,1.21
2023-04-16T03:44:13.967Z,1.23
2023-04-16T03:46:40.668Z,1.23
2023-04-16T03:49:07.916Z,1.24
2023-04-16T03:51:34.978Z,1.26
2023-04-16T03:54:01.596Z,1.24
2023-04-16T03:56:28.205Z,1.24
2023-04-16T03:58:56.023Z,1.24
2023-04-16T04:01:22.651Z,1.26
2023-04-16T04:03:49.632Z,1.25
2023-04-16T04:06:16.503Z,1.26
2023-04-16T04:08:43.151Z,1.28
2023-04-16T04:11:09.768Z,1.28
2023-04-16T04:13:36.377Z,1.23
2023-04-16T04:16:03.067Z,1.23
2023-04-16T04:18:29.752Z,1.22
2023-04-16T04:20:56.370Z,1.25
2023-04-16T04:23:22.998Z,1.25
2023-04-16T04:25:49.804Z,1.25
2023-04-16T04:28:16.529Z,1.25
2023-04-16T04:30:43.236Z,1.24
2023-04-16T04:33:09.911Z,1.24
2023-04-16T04:35:36.711Z,1.25
2023-04-16T04:38:03.686Z,1.26
2023-04-16T04:40:30.455Z,1.28
2023-04-16T04:42:57.071Z,1.28
2023-04-16T04:45:26.878Z,1.32
2023-04-16T04:47:53.815Z,1.32
2023-04-16T04:50:21.728Z,1.35
2023-04-16T04:52:48.370Z,1.33
2023-04-16T04:55:16.093Z,1.33
2023-04-16T04:57:42.819Z,1.33
2023-04-16T05:00:09.954Z,1.39
2023-04-16T05:02:36.675Z,1.39
2023-04-16T05:05:04.169Z,1.43
2023-04-16T05:07:31.684Z,1.43
2023-04-16T05:09:58.376Z,1.49
2023-04-16T05:12:25.034Z,1.51
2023-04-16T05:14:51.749Z,1.53
2023-04-16T05:17:18.483Z,1.56
2023-04-16T05:19:45.328Z,1.59
2023-04-16T05:22:12.626Z,1.63
2023-04-16T05:24:39.269Z,1.63
2023-04-16T05:27:06.520Z,1.63
2023-04-16T05:29:33.199Z,1.67
2023-04-16T05:31:59.904Z,1.69
2023-04-16T05:34:26.512Z,1.75
2023-04-16T05:36:53.172Z,1.79
2023-04-16T05:39:20.292Z,1.84
2023-04-16T05:41:47.064Z,1.89
2023-04-16T05:44:15.308Z,1.96
2023-04-16T05:46:42.006Z,1.99
2023-04-16T05:49:08.963Z,2.04
2023-04-16T05:51:36.119Z,2.06
2023-04-16T05:54:02.812Z,2.12
2023-04-16T05:56:29.596Z,2.16
2023-04-16T05:58:56.226Z,2.19
2023-04-16T06:01:22.933Z,2.27
2023-04-16T06:03:49.704Z,2.33
2023-04-16T06:06:16.463Z,2.43
2023-04-16T06:08:43.089Z,2.51
2023-04-16T06:11:09.807Z,2.57
2023-04-16T06:13:37.492Z,2.64
2023-04-16T06:16:04.315Z,2.72
2023-04-16T06:18:31.065Z,2.79
2023-04-16T06:20:59.379Z,2.83
2023-04-16T06:23:26.206Z,2.94
2023-04-16T06:25:52.860Z,3.00
2023-04-16T06:28:19.470Z,3.07
2023-04-16T06:30:47.192Z,3.10
2023-04-16T06:33:13.909Z,3.16
2023-04-16T06:35:40.954Z,3.23
2023-04-16T06:38:07.613Z,3.30
2023-04-16T06:40:34.464Z,3.40
2023-04-16T06:43:01.208Z,3.49
2023-04-16T06:45:27.837Z,3.61
2023-04-16T06:47:54.608Z,3.72
2023-04-16T06:50:22.352Z,3.80
2023-04-16T06:52:49.083Z,3.88
2023-04-16T06:55:15.772Z,3.97
2023-04-16T06:57:42.424Z,4.04
2023-04-16T07:00:09.700Z,4.16
2023-04-16T07:02:36.402Z,4.26
2023-04-16T07:05:03.442Z,4.37
2023-04-16T07:07:30.123Z,4.44
2023-04-16T07:09:56.930Z,4.50
2023-04-16T07:12:23.554Z,4.59
2023-04-16T07:14:50.299Z,4.68
2023-04-16T07:17:16.910Z,4.75
2023-04-16T07:19:44.532Z,4.84
2023-04-16T07:22:11.166Z,4.90
2023-04-16T07:24:37.770Z,4.99
2023-04-16T07:27:04.463Z,5.08
2023-04-16T07:29:31.070Z,5.19
2023-04-16T07:31:58.039Z,5.28
2023-04-16T07:34:24.741Z,5.41
2023-04-16T07:36:51.422Z,5.50
2023-04-16T07:39:18.123Z,5.59
2023-04-16T07:41:44.815Z,5.68
2023-04-16T07:44:11.419Z,5.79
2023-04-16T07:46:46.083Z,5.90
2023-04-16T07:49:14.555Z,5.99
2023-04-16T07:51:41.297Z,6.09
2023-04-16T07:54:07.930Z,6.22
2023-04-16T07:56:34.610Z,6.31
2023-04-16T07:59:14.352Z,6.43
2023-04-16T08:01:41.599Z,6.55
2023-04-16T08:04:08.398Z,6.67
2023-04-16T08:06:35.079Z,6.82
2023-04-16T08:09:01.701Z,6.99
2023-04-16T08:11:28.500Z,7.15
2023-04-16T08:13:55.249Z,7.39
2023-04-16T08:16:21.967Z,7.65
2023-04-16T08:18:48.733Z,7.98
2023-04-16T08:21:15.454Z,8.31
2023-04-16T08:23:42.108Z,8.63
2023-04-16T08:26:08.746Z,8.98
2023-04-16T08:28:35.432Z,9.30
2023-04-16T08:31:02.307Z,9.61
2023-04-16T08:33:28.979Z,9.91
2023-04-16T08:35:55.892Z,10.26
2023-04-16T08:38:22.537Z,10.68
2023-04-16T08:40:49.318Z,11.08
2023-04-16T08:43:18.230Z,11.50
2023-04-16T08:45:47.461Z,11.84
2023-04-16T08:48:15.189Z,12.07
2023-04-16T08:50:42.907Z,12.31
2023-04-16T08:53:13.723Z,12.51
2023-04-16T08:55:43.675Z,12.49
2023-04-16T08:58:21.412Z,12.28
2023-04-16T09:00:48.892Z,12.06
2023-04-16T09:03:15.849Z,11.87
2023-04-16T09:05:43.093Z,11.71
2023-04-16T09:08:09.770Z,11.68
2023-04-16T09:10:36.742Z,11.84
2023-04-16T09:13:03.422Z,12.18
2023-04-16T09:15:30.668Z,12.67
2023-04-16T09:17:57.727Z,13.09
2023-04-16T09:20:24.724Z,13.46
2023-04-16T09:22:51.404Z,13.77
2023-04-16T09:25:21.079Z,13.94
2023-04-16T09:27:50.139Z,13.98
2023-04-16T09:30:22.054Z,14.04
2023-04-16T09:32:49.633Z,14.10
2023-04-16T09:35:18.617Z,14.10
2023-04-16T09:37:56.857Z,14.10
2023-04-16T09:40:27.844Z,13.99
2023-04-16T09:42:57.789Z,13.93
2023-04-16T09:45:24.646Z,13.82
2023-04-16T09:47:51.519Z,13.65
2023-04-16T09:50:19.934Z,13.56
2023-04-16T09:52:50.805Z,13.46
2023-04-16T09:55:23.093Z,13.36
2023-04-16T09:57:49.714Z,13.27
2023-04-16T10:00:18.926Z,13.21
2023-04-16T10:02:46.590Z,13.18
2023-04-16T10:05:17.820Z,13.21
2023-04-16T10:07:44.477Z,13.28
2023-04-16T10:10:11.213Z,13.36
2023-04-16T10:12:37.908Z,13.43
2023-04-16T10:15:05.081Z,13.49
2023-04-16T10:17:31.934Z,13.61
2023-04-16T10:20:00.036Z,13.75
2023-04-16T10:22:26.758Z,13.77
2023-04-16T10:24:54.867Z,13.80
2023-04-16T10:27:21.696Z,13.92
2023-04-16T10:29:49.624Z,14.01
2023-04-16T10:32:18.336Z,14.07
2023-04-16T10:34:45.223Z,14.10
2023-04-16T10:37:12.662Z,14.12
2023-04-16T10:39:39.397Z,14.16
2023-04-16T10:42:13.483Z,14.30
2023-04-16T10:44:44.263Z,14.40
2023-04-16T10:47:14.009Z,14.49
2023-04-16T10:49:42.482Z,14.59
2023-04-16T10:52:20.241Z,14.62
2023-04-16T10:54:48.457Z,14.67
2023-04-16T10:57:20.633Z,14.72
2023-04-16T10:59:48.970Z,14.80
2023-04-16T11:02:18.481Z,14.84
2023-04-16T11:04:47.866Z,14.86
2023-04-16T11:07:20.989Z,14.81
2023-04-16T11:09:55.251Z,14.84
2023-04-16T11:12:23.015Z,14.88
2023-04-16T11:14:54.639Z,14.86
2023-04-16T11:17:21.992Z,14.87
2023-04-16T11:19:48.706Z,14.89
2023-04-16T11:22:17.446Z,14.95
2023-04-16T11:24:47.590Z,15.04
2023-04-16T11:27:16.121Z,15.12
2023-04-16T11:29:44.545Z,15.23
2023-04-16T11:32:21.696Z,15.30
2023-04-16T11:34:48.388Z,15.31
2023-04-16T11:37:15.158Z,15.35
2023-04-16T11:39:49.756Z,15.42
2023-04-16T11:42:22.757Z,15.55
2023-04-16T11:44:57.474Z,15.68
2023-04-16T11:47:24.882Z,15.79
2023-04-16T11:49:51.813Z,15.85
2023-04-16T11:52:33.659Z,15.98
2023-04-16T11:55:00.465Z,16.00
2023-04-16T11:57:31.713Z,16.06
2023-04-16T12:00:01.539Z,16.00
2023-04-16T12:02:37.516Z,16.05
2023-04-16T12:05:05.367Z,16.13
2023-04-16T12:07:32.179Z,16.23
2023-04-16T12:10:07.874Z,16.29
2023-04-16T12:12:35.460Z,16.27
2023-04-16T12:15:05.696Z,16.22
2023-04-16T12:17:33.873Z,16.30
2023-04-16T12:20:06.261Z,16.46
2023-04-16T12:22:37.658Z,16.55
2023-04-16T12:25:07.142Z,16.59
2023-04-16T12:27:53.698Z,16.66
2023-04-16T12:30:23.113Z,16.66
2023-04-16T12:32:52.292Z,16.69
2023-04-16T12:35:33.752Z,16.78
2023-04-16T12:38:01.026Z,16.86
2023-04-16T12:40:27.878Z,16.97
2023-04-16T12:42:55.051Z,16.96
2023-04-16T12:45:22.300Z,16.98
2023-04-16T12:47:50.576Z,17.04
2023-04-16T12:50:17.844Z,17.11
2023-04-16T12:52:44.852Z,17.08
2023-04-16T12:55:12.007Z,17.00
2023-04-16T12:57:38.637Z,16.97
2023-04-16T13:00:10.682Z,17.02
2023-04-16T13:02:37.604Z,17.09
2023-04-16T13:05:04.721Z,17.21
2023-04-16T13:07:32.323Z,17.35
2023-04-16T13:09:59.965Z,17.51
2023-04-16T13:12:27.660Z,17.62
2023-04-16T13:14:55.492Z,17.61
2023-04-16T13:17:22.305Z,17.58
2023-04-16T13:19:48.935Z,17.61
2023-04-16T13:22:15.832Z,17.62
2023-04-16T13:24:42.492Z,17.47
2023-04-16T13:27:09.196Z,17.31
2023-04-16T13:29:38.588Z,17.15
2023-04-16T13:32:05.800Z,17.05
2023-04-16T13:34:32.836Z,16.94
2023-04-16T13:36:59.454Z,16.91
2023-04-16T13:39:26.239Z,16.85
2023-04-16T13:41:52.848Z,16.73
2023-04-16T13:44:19.486Z,16.64
2023-04-16T13:46:47.891Z,16.61
2023-04-16T13:49:15.117Z,16.47
2023-04-16T13:51:47.270Z,16.33
2023-04-16T13:54:14.160Z,16.18
2023-04-16T13:56:40.929Z,16.04
2023-04-16T13:59:08.161Z,15.98
2023-04-16T14:01:35.048Z,15.95
2023-04-16T14:04:06.466Z,15.86
2023-04-16T14:06:34.448Z,15.75
2023-04-16T14:09:01.458Z,15.68
2023-04-16T14:11:28.197Z,15.60
2023-04-16T14:13:55.118Z,15.51
2023-04-16T14:16:21.763Z,15.43
2023-04-16T14:18:48.450Z,15.35
2023-04-16T14:21:15.095Z,15.32
2023-04-16T14:23:41.716Z,15.33
2023-04-16T14:26:08.489Z,15.32
2023-04-16T14:28:35.832Z,15.37
2023-04-16T14:31:02.582Z,15.41
2023-04-16T14:33:29.355Z,15.51
2023-04-16T14:35:56.158Z,15.62
2023-04-16T14:38:22.857Z,15.79
2023-04-16T14:40:49.564Z,15.97
2023-04-16T14:43:16.248Z,16.16
2023-04-16T14:45:43.238Z,16.37
2023-04-16T14:48:10.043Z,16.46
2023-04-16T14:50:43.597Z,16.48
2023-04-16T14:53:12.165Z,16.55
2023-04-16T14:55:38.927Z,16.58
2023-04-16T14:58:05.662Z,16.63
2023-04-16T15:00:35.651Z,16.62
2023-04-16T15:03:02.420Z,16.63
2023-04-16T15:05:30.307Z,16.64
2023-04-16T15:07:57.044Z,16.60
2023-04-16T15:10:23.730Z,16.59
2023-04-16T15:12:50.472Z,16.54
2023-04-16T15:15:17.647Z,16.45
2023-04-16T15:17:44.579Z,16.31
2023-04-16T15:20:11.948Z,16.18
2023-04-16T15:22:38.848Z,16.02
2023-04-16T15:25:06.413Z,15.91
2023-04-16T15:27:33.064Z,15.77
2023-04-16T15:29:59.809Z,15.59
2023-04-16T15:32:26.550Z,15.40
2023-04-16T15:34:53.208Z,15.24
2023-04-16T15:37:19.869Z,15.06
2023-04-16T15:39:46.506Z,14.95
2023-04-16T15:42:13.357Z,14.82
2023-04-16T15:44:40.509Z,14.73
2023-04-16T15:47:08.585Z,14.59
2023-04-16T15:49:36.060Z,14.49
2023-04-16T15:52:03.133Z,14.50
2023-04-16T15:54:30.568Z,14.53
2023-04-16T15:56:58.764Z,14.56
2023-04-16T15:59:26.709Z,14.59
2023-04-16T16:01:53.476Z,14.67
2023-04-16T16:04:22.855Z,14.77
2023-04-16T16:06:50.315Z,14.80
2023-04-16T16:09:17.076Z,14.71
2023-04-16T16:11:43.826Z,14.56
2023-04-16T16:14:10.929Z,14.43
2023-04-16T16:16:37.872Z,14.27
2023-04-16T16:19:04.705Z,14.16
2023-04-16T16:21:32.587Z,14.06
2023-04-16T16:23:59.314Z,13.94
2023-04-16T16:26:25.994Z,13.81
2023-04-16T16:28:52.686Z,13.81
2023-04-16T16:31:19.420Z,13.81
2023-04-16T16:33:46.205Z,13.77
2023-04-16T16:36:12.949Z,13.72
2023-04-16T16:38:42.665Z,13.80
2023-04-16T16:41:09.533Z,13.77
2023-04-16T16:43:39.135Z,13.65
2023-04-16T16:46:07.467Z,13.46
2023-04-16T16:48:34.189Z,13.28
2023-04-16T16:51:01.148Z,13.09
2023-04-16T16:53:27.775Z,12.94
2023-04-16T16:55:54.418Z,12.89
2023-04-16T16:58:21.109Z,12.84
2023-04-16T17:00:47.756Z,12.75
2023-04-16T17:03:14.653Z,12.61
2023-04-16T17:05:41.464Z,12.49
2023-04-16T17:08:08.150Z,12.40
2023-04-16T17:10:35.983Z,12.30
2023-04-16T17:13:02.647Z,12.22
2023-04-16T17:15:29.360Z,12.18
2023-04-16T17:17:56.034Z,12.09
2023-04-16T17:20:22.746Z,12.00
2023-04-16T17:22:49.440Z,11.84
2023-04-16T17:25:16.100Z,11.70
2023-04-16T17:27:42.723Z,11.62
2023-04-16T17:30:09.803Z,11.53
2023-04-16T17:32:36.617Z,11.48
2023-04-16T17:35:04.431Z,11.44
2023-04-16T17:37:31.205Z,11.37
2023-04-16T17:39:57.922Z,11.32
2023-04-16T17:42:24.802Z,11.21
2023-04-16T17:44:51.906Z,11.12
2023-04-16T17:47:18.580Z,11.03
2023-04-16T17:49:45.397Z,10.93
2023-04-16T17:52:12.016Z,10.85
2023-04-16T17:54:38.663Z,10.84
2023-04-16T17:57:05.364Z,10.82
2023-04-16T17:59:32.062Z,10.81
2023-04-16T18:01:58.775Z,10.74
2023-04-16T18:04:25.597Z,10.64
2023-04-16T18:06:52.523Z,10.54
2023-04-16T18:09:19.670Z,10.50
2023-04-16T18:11:46.306Z,10.50
2023-04-16T18:14:19.911Z,10.49
2023-04-16T18:16:47.917Z,10.44
2023-04-16T18:19:15.954Z,10.35
2023-04-16T18:21:43.222Z,10.24
2023-04-16T18:24:10.331Z,10.18
2023-04-16T18:26:37.629Z,10.09
2023-04-16T18:29:05.541Z,9.96
2023-04-16T18:31:32.354Z,9.82
2023-04-16T18:33:59.223Z,9.74
2023-04-16T18:36:27.064Z,9.65
2023-04-16T18:41:24.086Z,9.51
2023-04-16T18:43:50.884Z,9.49
2023-04-16T18:46:17.688Z,9.44
2023-04-16T18:48:45.247Z,9.39
2023-04-16T18:51:13.312Z,9.28
2023-04-16T18:53:44.353Z,9.21
2023-04-16T18:56:11.729Z,9.16
2023-04-16T18:58:38.537Z,9.13
2023-04-16T19:01:07.866Z,9.12
2023-04-16T19:03:34.934Z,9.11
2023-04-16T19:06:01.993Z,9.05
2023-04-16T19:08:28.643Z,8.94
2023-04-16T19:10:55.350Z,8.85
2023-04-16T19:13:22.209Z,8.71
2023-04-16T19:15:48.863Z,8.60
2023-04-16T19:18:15.754Z,8.52
2023-04-16T19:20:42.381Z,8.47
2023-04-16T19:23:09.283Z,8.41
2023-04-16T19:25:38.929Z,8.35
2023-04-16T19:28:05.743Z,8.24
2023-04-16T19:30:32.429Z,8.16
2023-04-16T19:32:59.113Z,8.04
2023-04-16T19:35:25.944Z,8.00
2023-04-16T19:37:52.791Z,7.99
2023-04-16T19:40:19.514Z,8.01
2023-04-16T19:42:46.206Z,8.00
2023-04-16T19:45:12.836Z,7.97
2023-04-16T19:47:39.599Z,7.86
2023-04-16T19:50:06.846Z,7.78
2023-04-16T19:52:38.709Z,7.73
2023-04-16T19:55:06.702Z,7.66
2023-04-16T19:57:33.395Z,7.64
2023-04-16T20:02:27.056Z,7.57
2023-04-16T20:04:54.000Z,7.48
2023-04-16T20:07:20.633Z,7.38
2023-04-16T20:09:47.352Z,7.25
2023-04-16T20:12:14.468Z,7.13
2023-04-16T20:14:41.942Z,7.09
2023-04-16T20:17:10.229Z,7.00
2023-04-16T20:19:40.384Z,6.96
2023-04-16T20:22:07.086Z,6.85
2023-04-16T20:24:34.370Z,6.80
2023-04-16T20:27:01.845Z,6.70
2023-04-16T20:29:28.506Z,6.62
2023-04-16T20:31:55.135Z,6.57
2023-04-16T20:34:21.757Z,6.54
2023-04-16T20:36:48.420Z,6.50
2023-04-16T20:39:20.290Z,6.45
2023-04-16T20:41:56.594Z,6.43
2023-04-16T20:44:33.380Z,6.40
2023-04-16T20:47:00.121Z,6.37
2023-04-16T20:49:26.837Z,6.30
2023-04-16T20:51:53.460Z,6.23
2023-04-16T20:54:20.091Z,6.16
2023-04-16T20:56:47.240Z,6.10
2023-04-16T20:59:13.944Z,6.05
2023-04-16T21:01:40.593Z,5.99
2023-04-16T21:04:07.969Z,5.96
2023-04-16T21:06:38.613Z,5.96
2023-04-16T21:09:06.065Z,5.90
2023-04-16T21:11:34.854Z,5.88
2023-04-16T21:14:02.772Z,5.87
2023-04-16T21:16:29.681Z,5.85
2023-04-16T21:18:57.068Z,5.83
2023-04-16T21:21:24.302Z,5.77
2023-04-16T21:23:51.104Z,5.68
2023-04-16T21:26:17.764Z,5.64
2023-04-16T21:28:44.464Z,5.63
2023-04-16T21:31:11.380Z,5.56
2023-04-16T21:33:38.084Z,5.50
2023-04-16T21:36:04.860Z,5.45
2023-04-16T21:38:31.514Z,5.44
2023-04-16T21:40:58.210Z,5.41
2023-04-16T21:43:25.097Z,5.39
2023-04-16T21:45:55.579Z,5.39
2023-04-16T21:48:23.777Z,5.40
2023-04-16T21:51:06.595Z,5.43
2023-04-16T21:53:34.140Z,5.40
2023-04-16T21:56:00.871Z,5.36
2023-04-16T21:58:27.602Z,5.31
2023-04-16T22:00:54.479Z,5.25
2023-04-16T22:03:28.168Z,5.20
2023-04-16T22:06:00.920Z,5.15
2023-04-16T22:08:31.114Z,5.12
2023-04-16T22:10:59.365Z,5.13
2023-04-16T22:13:27.791Z,5.10
2023-04-16T22:15:55.139Z,5.03
2023-04-16T22:18:27.151Z,4.97
2023-04-16T22:20:55.056Z,4.93
2023-04-16T22:23:25.801Z,4.90
2023-04-16T22:25:54.606Z,4.87
2023-04-16T22:28:21.336Z,4.84
2023-04-16T22:30:47.963Z,4.79
2023-04-16T22:33:14.974Z,4.74
2023-04-16T22:35:42.250Z,4.74
2023-04-16T22:38:10.794Z,4.70
2023-04-16T22:40:37.523Z,4.74
2023-04-16T22:43:04.559Z,4.79
2023-04-16T22:45:31.364Z,4.77
2023-04-16T22:47:58.051Z,4.70
2023-04-16T22:50:24.703Z,4.61
2023-04-16T22:52:51.367Z,4.53
2023-04-16T22:55:18.166Z,4.49
2023-04-16T22:57:44.800Z,4.46
2023-04-16T23:00:15.935Z,4.41
2023-04-16T23:02:43.234Z,4.36
2023-04-16T23:05:10.808Z,4.32
2023-04-16T23:07:37.719Z,4.31
2023-04-16T23:10:04.811Z,4.26
2023-04-16T23:12:31.450Z,4.23
2023-04-16T23:14:58.363Z,4.14
2023-04-16T23:17:25.179Z,4.13
2023-04-16T23:19:51.827Z,4.15
2023-04-16T23:22:18.436Z,4.19
2023-04-16T23:24:45.096Z,4.20
2023-04-16T23:27:11.749Z,4.20
2023-04-16T23:29:38.353Z,4.16
2023-04-16T23:32:05.067Z,4.12
2023-04-16T23:34:31.689Z,4.14
2023-04-16T23:36:58.284Z,4.11
2023-04-16T23:39:24.903Z,4.10
2023-04-16T23:41:51.519Z,4.04
2023-04-16T23:44:18.132Z,3.96
2023-04-16T23:46:44.853Z,3.92
2023-04-16T23:49:11.716Z,3.91
2023-04-16T23:51:38.420Z,3.89
2023-04-16T23:54:05.105Z,3.87
2023-04-16T23:56:31.746Z,3.86
2023-04-16T23:58:58.396Z,3.80
